Terminal Aerodrome Forecast
Issued by NWS Cleveland, OH

Home | Current Version | Previous Version | Text Only | Print | Product List | Glossary Off
Versions: 1 2 3 4 5 6 7 8 9 10 11 12 13 14 15 16 17 18 19 20 21 22 23 24 25 26 27 28

000
FTUS41 KCLE 282000 AAA
TAFCLE
TAF AMD
KCLE 282032Z 2821/2924 19005KT P6SM SCT250
     FM290000 16008KT P6SM SCT120 OVC250
     FM290600 15008KT P6SM OVC120
     FM291200 16012KT P6SM OVC050
     FM291400 18014G20KT P6SM -FZRA OVC035
      TEMPO 2914/2916 5SM -FZRA BR OVC012
     FM291600 18014G20KT 4SM -FZRA BR OVC012
      TEMPO 2916/2918 3SM -RASNPL OVC008
     FM291800 20012KT 4SM -RASN OVC008
     FM292000 20010KT 4SM -SN OVC008=

USA.gov is the U.S. government's official web portal to all federal, state and local government web resources and services.